sensor_id;sensor_type;location;lat;lon;timestamp;pressure;altitude;pressure_sealevel;temperature;humidity
13011;BME280;6786;57.632;11.962;2023-07-20T00:01:18;99944.28;;;20.56;62.81
13011;BME280;6786;57.632;11.962;2023-07-20T00:04:12;99945.31;;;20.55;62.63
13011;BME280;6786;57.632;11.962;2023-07-20T00:06:47;99944.47;;;20.55;62.64
13011;BME280;6786;57.632;11.962;2023-07-20T00:09:20;99948.00;;;20.55;62.83
13011;BME280;6786;57.632;11.962;2023-07-20T00:11:53;99938.28;;;20.54;62.88
13011;BME280;6786;57.632;11.962;2023-07-20T00:14:25;99936.59;;;20.53;62.71
13011;BME280;6786;57.632;11.962;2023-07-20T00:16:57;99947.34;;;20.53;62.73
13011;BME280;6786;57.632;11.962;2023-07-20T00:19:33;99931.41;;;20.52;62.96
13011;BME280;6786;57.632;11.962;2023-07-20T00:22:12;99931.41;;;20.52;62.77
13011;BME280;6786;57.632;11.962;2023-07-20T00:24:45;99927.84;;;20.51;62.75
13011;BME280;6786;57.632;11.962;2023-07-20T00:27:22;99926.84;;;20.52;62.93
13011;BME280;6786;57.632;11.962;2023-07-20T00:29:57;99920.50;;;20.53;62.76
13011;BME280;6786;57.632;11.962;2023-07-20T00:32:29;99927.84;;;20.51;62.86
13011;BME280;6786;57.632;11.962;2023-07-20T00:35:05;99917.13;;;20.51;62.73
13011;BME280;6786;57.632;11.962;2023-07-20T00:37:36;99921.47;;;20.52;62.75
13011;BME280;6786;57.632;11.962;2023-07-20T00:40:10;99918.78;;;20.52;62.91
13011;BME280;6786;57.632;11.962;2023-07-20T00:42:44;99920.50;;;20.53;62.77
13011;BME280;6786;57.632;11.962;2023-07-20T00:45:18;99922.31;;;20.53;62.81
13011;BME280;6786;57.632;11.962;2023-07-20T00:47:53;99914.44;;;20.51;62.88
13011;BME280;6786;57.632;11.962;2023-07-20T00:50:36;99915.28;;;20.52;62.93
13011;BME280;6786;57.632;11.962;2023-07-20T00:53:08;99885.38;;;20.39;63.01
13011;BME280;6786;57.632;11.962;2023-07-20T00:55:39;99898.16;;;20.53;62.77
13011;BME280;6786;57.632;11.962;2023-07-20T00:58:19;99912.44;;;20.53;62.96
13011;BME280;6786;57.632;11.962;2023-07-20T01:00:52;99906.06;;;20.54;62.79
13011;BME280;6786;57.632;11.962;2023-07-20T01:03:24;99906.06;;;20.54;62.63
13011;BME280;6786;57.632;11.962;2023-07-20T01:06:05;99900.69;;;20.54;62.81
13011;BME280;6786;57.632;11.962;2023-07-20T01:08:49;99893.66;;;20.53;62.93
13011;BME280;6786;57.632;11.962;2023-07-20T01:11:33;99909.75;;;20.53;62.84
13011;BME280;6786;57.632;11.962;2023-07-20T01:14:12;99905.38;;;20.52;63.05
13011;BME280;6786;57.632;11.962;2023-07-20T01:16:45;99895.97;;;20.48;62.84
13011;BME280;6786;57.632;11.962;2023-07-20T01:19:20;99901.00;;;20.51;62.99
13011;BME280;6786;57.632;11.962;2023-07-20T01:21:59;99907.25;;;20.52;62.99
13011;BME280;6786;57.632;11.962;2023-07-20T01:24:55;99904.72;;;20.50;62.61
13011;BME280;6786;57.632;11.962;2023-07-20T02:07:37;99881.53;;;20.49;62.74
13011;BME280;6786;57.632;11.962;2023-07-20T02:10:10;99874.84;;;20.45;62.80
13011;BME280;6786;57.632;11.962;2023-07-20T02:12:43;99877.19;;;20.48;63.07
13011;BME280;6786;57.632;11.962;2023-07-20T02:15:18;99882.56;;;20.48;62.86
13011;BME280;6786;57.632;11.962;2023-07-20T02:17:52;99874.84;;;20.45;62.84
13011;BME280;6786;57.632;11.962;2023-07-20T02:20:29;99883.56;;;20.47;62.89
13011;BME280;6786;57.632;11.962;2023-07-20T02:23:05;99882.56;;;20.48;62.91
13011;BME280;6786;57.632;11.962;2023-07-20T02:25:40;99874.50;;;20.48;63.00
13011;BME280;6786;57.632;11.962;2023-07-20T02:28:14;99884.22;;;20.49;63.01
13011;BME280;6786;57.632;11.962;2023-07-20T02:30:48;99877.88;;;20.50;62.83
13011;BME280;6786;57.632;11.962;2023-07-20T02:33:22;99864.78;;;20.47;62.88
13011;BME280;6786;57.632;11.962;2023-07-20T02:35:55;99869.97;;;20.49;62.92
13011;BME280;6786;57.632;11.962;2023-07-20T02:38:33;99863.44;;;20.51;63.03
13011;BME280;6786;57.632;11.962;2023-07-20T02:41:09;99872.50;;;20.50;62.91
13011;BME280;6786;57.632;11.962;2023-07-20T02:43:45;99875.84;;;20.52;62.93
13011;BME280;6786;57.632;11.962;2023-07-20T02:46:18;99874.16;;;20.51;63.06
13011;BME280;6786;57.632;11.962;2023-07-20T02:48:51;99869.66;;;20.52;62.95
13011;BME280;6786;57.632;11.962;2023-07-20T02:51:25;99857.22;;;20.51;62.95
13011;BME280;6786;57.632;11.962;2023-07-20T02:54:01;99867.97;;;20.51;62.95
13011;BME280;6786;57.632;11.962;2023-07-20T02:56:36;99868.81;;;20.51;62.87
13011;BME280;6786;57.632;11.962;2023-07-20T02:59:19;99857.22;;;20.51;62.81
13011;BME280;6786;57.632;11.962;2023-07-20T03:01:53;99864.44;;;20.50;63.02
13011;BME280;6786;57.632;11.962;2023-07-20T03:04:48;99856.72;;;20.47;63.06
13011;BME280;6786;57.632;11.962;2023-07-20T03:07:22;99859.09;;;20.50;62.89
13011;BME280;6786;57.632;11.962;2023-07-20T03:10:19;99868.81;;;20.51;62.80
13011;BME280;6786;57.632;11.962;2023-07-20T03:12:55;99861.75;;;20.50;62.94
13011;BME280;6786;57.632;11.962;2023-07-20T03:15:34;99863.44;;;20.51;62.87
13011;BME280;6786;57.632;11.962;2023-07-20T03:18:07;99864.28;;;20.52;62.74
13011;BME280;6786;57.632;11.962;2023-07-20T03:20:44;99854.38;;;20.52;62.78
13011;BME280;6786;57.632;11.962;2023-07-20T03:23:25;99863.44;;;20.51;62.72
13011;BME280;6786;57.632;11.962;2023-07-20T03:26:00;99835.72;;;20.35;63.03
13011;BME280;6786;57.632;11.962;2023-07-20T03:28:32;99867.13;;;20.50;62.91
13011;BME280;6786;57.632;11.962;2023-07-20T03:31:05;99853.88;;;20.49;62.79
13011;BME280;6786;57.632;11.962;2023-07-20T03:33:37;99861.75;;;20.50;62.89
13011;BME280;6786;57.632;11.962;2023-07-20T03:36:13;99861.75;;;20.50;62.92
13011;BME280;6786;57.632;11.962;2023-07-20T03:38:45;99868.81;;;20.51;62.94
13011;BME280;6786;57.632;11.962;2023-07-20T03:41:25;99866.13;;;20.51;62.61
13011;BME280;6786;57.632;11.962;2023-07-20T03:44:03;99858.06;;;20.51;62.69
13011;BME280;6786;57.632;11.962;2023-07-20T03:46:38;99856.41;;;20.50;62.80
13011;BME280;6786;57.632;11.962;2023-07-20T03:49:13;99858.06;;;20.51;62.78
13011;BME280;6786;57.632;11.962;2023-07-20T03:51:47;99859.91;;;20.51;62.86
13011;BME280;6786;57.632;11.962;2023-07-20T03:54:18;99865.28;;;20.51;62.69
13011;BME280;6786;57.632;11.962;2023-07-20T03:56:57;99861.75;;;20.50;62.59
13011;BME280;6786;57.632;11.962;2023-07-20T03:59:30;99867.13;;;20.50;62.74
13011;BME280;6786;57.632;11.962;2023-07-20T04:02:03;99865.28;;;20.51;62.94
13011;BME280;6786;57.632;11.962;2023-07-20T04:04:38;99863.44;;;20.51;62.85
13011;BME280;6786;57.632;11.962;2023-07-20T04:07:13;99849.34;;;20.49;62.61
13011;BME280;6786;57.632;11.962;2023-07-20T04:09:48;99856.41;;;20.50;62.89
13011;BME280;6786;57.632;11.962;2023-07-20T04:12:26;99854.53;;;20.51;62.55
13011;BME280;6786;57.632;11.962;2023-07-20T04:14:57;99863.44;;;20.51;62.57
13011;BME280;6786;57.632;11.962;2023-07-20T04:17:36;99851.03;;;20.50;62.74
13011;BME280;6786;57.632;11.962;2023-07-20T04:20:11;99858.06;;;20.51;62.74
13011;BME280;6786;57.632;11.962;2023-07-20T04:23:06;99853.72;;;20.50;62.57
13011;BME280;6786;57.632;11.962;2023-07-20T04:25:41;99856.41;;;20.50;62.67
13011;BME280;6786;57.632;11.962;2023-07-20T04:28:16;99866.13;;;20.51;62.43
13011;BME280;6786;57.632;11.962;2023-07-20T04:30:50;99857.53;;;20.48;62.72
13011;BME280;6786;57.632;11.962;2023-07-20T04:33:23;99857.38;;;20.49;62.72
13011;BME280;6786;57.632;11.962;2023-07-20T04:35:58;99856.41;;;20.50;62.42
13011;BME280;6786;57.632;11.962;2023-07-20T04:38:34;99847.34;;;20.51;62.74
13011;BME280;6786;57.632;11.962;2023-07-20T04:41:07;99855.53;;;20.50;62.66
13011;BME280;6786;57.632;11.962;2023-07-20T04:43:47;99854.69;;;20.49;62.42
13011;BME280;6786;57.632;11.962;2023-07-20T04:46:23;99847.13;;;20.45;62.61
13011;BME280;6786;57.632;11.962;2023-07-20T04:48:58;99851.03;;;20.50;62.50
13011;BME280;6786;57.632;11.962;2023-07-20T04:51:33;99852.88;;;20.50;62.65
13011;BME280;6786;57.632;11.962;2023-07-20T04:54:11;99859.09;;;20.50;62.60
13011;BME280;6786;57.632;11.962;2023-07-20T04:56:44;99851.03;;;20.50;62.58
13011;BME280;6786;57.632;11.962;2023-07-20T04:59:21;99862.75;;;20.49;62.29
13011;BME280;6786;57.632;11.962;2023-07-20T05:01:54;99861.75;;;20.50;62.43
13011;BME280;6786;57.632;11.962;2023-07-20T05:04:33;99856.41;;;20.50;62.49
13011;BME280;6786;57.632;11.962;2023-07-20T05:07:05;99854.69;;;20.49;62.52
13011;BME280;6786;57.632;11.962;2023-07-20T05:09:34;99850.19;;;20.50;62.26
13011;BME280;6786;57.632;11.962;2023-07-20T05:12:02;99856.41;;;20.50;62.44
13011;BME280;6786;57.632;11.962;2023-07-20T05:14:31;99860.06;;;20.49;62.60
13011;BME280;6786;57.632;11.962;2023-07-20T05:17:00;99856.41;;;20.50;62.41
13011;BME280;6786;57.632;11.962;2023-07-20T05:19:28;99851.03;;;20.50;62.29
13011;BME280;6786;57.632;11.962;2023-07-20T05:21:56;99848.00;;;20.45;62.47
13011;BME280;6786;57.632;11.962;2023-07-20T05:24:24;99798.63;;;20.22;62.32
13011;BME280;6786;57.632;11.962;2023-07-20T05:26:52;99845.66;;;20.50;62.24
13011;BME280;6786;57.632;11.962;2023-07-20T05:29:21;99856.41;;;20.50;62.21
13011;BME280;6786;57.632;11.962;2023-07-20T05:31:50;99854.69;;;20.49;62.21
13011;BME280;6786;57.632;11.962;2023-07-20T05:34:19;99860.91;;;20.50;62.36
13011;BME280;6786;57.632;11.962;2023-07-20T05:36:47;99854.69;;;20.49;62.19
13011;BME280;6786;57.632;11.962;2023-07-20T05:39:16;99854.69;;;20.49;62.47
13011;BME280;6786;57.632;11.962;2023-07-20T05:41:45;99854.69;;;20.49;62.12
13011;BME280;6786;57.632;11.962;2023-07-20T05:44:13;99851.03;;;20.50;62.44
13011;BME280;6786;57.632;11.962;2023-07-20T05:46:41;99849.34;;;20.49;62.37
13011;BME280;6786;57.632;11.962;2023-07-20T05:49:25;99850.19;;;20.50;62.13
13011;BME280;6786;57.632;11.962;2023-07-20T05:51:53;99853.72;;;20.50;62.24
13011;BME280;6786;57.632;11.962;2023-07-20T05:54:21;99844.81;;;20.50;62.34
13011;BME280;6786;57.632;11.962;2023-07-20T05:56:49;99811.72;;;20.25;61.87
13011;BME280;6786;57.632;11.962;2023-07-20T05:59:17;99845.66;;;20.50;62.38
13011;BME280;6786;57.632;11.962;2023-07-20T06:01:46;99851.84;;;20.51;62.40
13011;BME280;6786;57.632;11.962;2023-07-20T06:04:15;99854.38;;;20.52;61.99
13011;BME280;6786;57.632;11.962;2023-07-20T06:06:45;99855.22;;;20.53;62.04
13011;BME280;6786;57.632;11.962;2023-07-20T06:09:13;99854.38;;;20.52;62.21
13011;BME280;6786;57.632;11.962;2023-07-20T06:11:41;99842.63;;;20.45;62.44
13011;BME280;6786;57.632;11.962;2023-07-20T06:14:09;99849.16;;;20.51;62.22
13011;BME280;6786;57.632;11.962;2023-07-20T06:16:37;99853.72;;;20.50;62.03
13011;BME280;6786;57.632;11.962;2023-07-20T06:19:05;99854.69;;;20.49;62.25
13011;BME280;6786;57.632;11.962;2023-07-20T06:21:33;99856.56;;;20.49;62.20
13011;BME280;6786;57.632;11.962;2023-07-20T06:24:03;99854.69;;;20.49;62.21
13011;BME280;6786;57.632;11.962;2023-07-20T06:26:31;99849.34;;;20.49;62.16
13011;BME280;6786;57.632;11.962;2023-07-20T06:29:05;99849.34;;;20.49;62.16
13011;BME280;6786;57.632;11.962;2023-07-20T06:31:34;99845.66;;;20.50;62.30
13011;BME280;6786;57.632;11.962;2023-07-20T06:34:02;99837.59;;;20.50;62.20
13011;BME280;6786;57.632;11.962;2023-07-20T06:36:31;99838.59;;;20.49;62.12
13011;BME280;6786;57.632;11.962;2023-07-20T06:38:59;99845.66;;;20.50;62.28
13011;BME280;6786;57.632;11.962;2023-07-20T06:41:31;99851.03;;;20.50;62.40
13011;BME280;6786;57.632;11.962;2023-07-20T06:44:02;99846.47;;;20.51;62.30
13011;BME280;6786;57.632;11.962;2023-07-20T06:46:31;99830.22;;;20.44;62.12
13011;BME280;6786;57.632;11.962;2023-07-20T06:48:59;99841.97;;;20.51;62.16
13011;BME280;6786;57.632;11.962;2023-07-20T06:51:30;99832.25;;;20.50;62.42
13011;BME280;6786;57.632;11.962;2023-07-20T06:53:59;99843.97;;;20.49;62.37
13011;BME280;6786;57.632;11.962;2023-07-20T06:56:27;99843.97;;;20.49;62.22
13011;BME280;6786;57.632;11.962;2023-07-20T06:59:00;99832.41;;;20.49;62.50
13011;BME280;6786;57.632;11.962;2023-07-20T07:01:29;99842.28;;;20.48;62.30
13011;BME280;6786;57.632;11.962;2023-07-20T07:03:57;99846.00;;;20.47;62.06
13011;BME280;6786;57.632;11.962;2023-07-20T07:06:26;99835.25;;;20.47;62.24
13011;BME280;6786;57.632;11.962;2023-07-20T07:08:55;99845.66;;;20.50;62.20
13011;BME280;6786;57.632;11.962;2023-07-20T07:11:23;99843.97;;;20.49;62.26
13011;BME280;6786;57.632;11.962;2023-07-20T07:13:51;99849.34;;;20.49;62.25
13011;BME280;6786;57.632;11.962;2023-07-20T07:16:24;99851.03;;;20.50;62.35
13011;BME280;6786;57.632;11.962;2023-07-20T07:18:53;99843.97;;;20.49;62.29
13011;BME280;6786;57.632;11.962;2023-07-20T07:21:26;99842.97;;;20.50;62.26
13011;BME280;6786;57.632;11.962;2023-07-20T07:23:54;99845.66;;;20.50;62.18
13011;BME280;6786;57.632;11.962;2023-07-20T07:26:24;99808.69;;;20.28;62.15
13011;BME280;6786;57.632;11.962;2023-07-20T07:28:52;99838.59;;;20.49;62.19
13011;BME280;6786;57.632;11.962;2023-07-20T07:31:20;99843.97;;;20.49;62.41
13011;BME280;6786;57.632;11.962;2023-07-20T07:33:51;99847.66;;;20.48;62.55
13011;BME280;6786;57.632;11.962;2023-07-20T07:36:19;99840.63;;;20.47;62.57
13011;BME280;6786;57.632;11.962;2023-07-20T07:38:48;99851.38;;;20.47;62.57
13011;BME280;6786;57.632;11.962;2023-07-20T07:41:36;99856.72;;;20.47;62.32
13011;BME280;6786;57.632;11.962;2023-07-20T07:44:04;99853.03;;;20.48;62.66
13011;BME280;6786;57.632;11.962;2023-07-20T07:46:33;99846.81;;;20.48;62.48
13011;BME280;6786;57.632;11.962;2023-07-20T07:49:02;99847.66;;;20.48;62.47
13011;BME280;6786;57.632;11.962;2023-07-20T07:51:30;99846.81;;;20.48;62.47
13011;BME280;6786;57.632;11.962;2023-07-20T07:53:59;99846.00;;;20.47;62.56
13011;BME280;6786;57.632;11.962;2023-07-20T07:56:27;99836.72;;;20.42;62.66
13011;BME280;6786;57.632;11.962;2023-07-20T07:58:55;99848.69;;;20.47;62.52
13011;BME280;6786;57.632;11.962;2023-07-20T08:01:23;99850.69;;;20.45;62.66
13011;BME280;6786;57.632;11.962;2023-07-20T08:03:52;99843.63;;;20.44;62.61
13011;BME280;6786;57.632;11.962;2023-07-20T08:06:21;99835.22;;;20.39;62.91
13011;BME280;6786;57.632;11.962;2023-07-20T08:08:51;99862.75;;;20.41;62.99
13011;BME280;6786;57.632;11.962;2023-07-20T08:11:19;99857.38;;;20.41;63.05
13011;BME280;6786;57.632;11.962;2023-07-20T08:13:47;99866.41;;;20.40;62.88
13011;BME280;6786;57.632;11.962;2023-07-20T08:16:15;99857.38;;;20.41;63.17
13011;BME280;6786;57.632;11.962;2023-07-20T08:18:43;99857.38;;;20.41;63.11
13011;BME280;6786;57.632;11.962;2023-07-20T08:21:12;99792.19;;;19.99;63.13
13011;BME280;6786;57.632;11.962;2023-07-20T08:23:42;99854.34;;;20.36;63.28
13011;BME280;6786;57.632;11.962;2023-07-20T08:26:10;99852.34;;;20.38;62.98
13011;BME280;6786;57.632;11.962;2023-07-20T08:28:38;99852.34;;;20.38;63.34
13011;BME280;6786;57.632;11.962;2023-07-20T08:31:06;99811.72;;;20.17;63.10
13011;BME280;6786;57.632;11.962;2023-07-20T08:33:35;99854.03;;;20.39;63.14
13011;BME280;6786;57.632;11.962;2023-07-20T08:36:03;99843.28;;;20.39;62.95
13011;BME280;6786;57.632;11.962;2023-07-20T08:38:32;99846.66;;;20.41;62.92
13011;BME280;6786;57.632;11.962;2023-07-20T08:41:02;99857.38;;;20.41;63.09
13011;BME280;6786;57.632;11.962;2023-07-20T08:43:31;99843.59;;;20.36;63.26
13011;BME280;6786;57.632;11.962;2023-07-20T08:46:01;99852.84;;;20.42;63.33
13011;BME280;6786;57.632;11.962;2023-07-20T08:48:31;99855.69;;;20.40;63.42
13011;BME280;6786;57.632;11.962;2023-07-20T08:51:00;99860.22;;;20.40;63.37
13011;BME280;6786;57.632;11.962;2023-07-20T08:53:29;99854.03;;;20.39;63.39
13011;BME280;6786;57.632;11.962;2023-07-20T08:55:59;99856.34;;;20.34;63.41
13011;BME280;6786;57.632;11.962;2023-07-20T08:58:29;99857.72;;;20.38;63.24
13011;BME280;6786;57.632;11.962;2023-07-20T09:00:58;99861.22;;;20.39;63.40
13011;BME280;6786;57.632;11.962;2023-07-20T09:03:28;99837.88;;;20.23;63.28
13011;BME280;6786;57.632;11.962;2023-07-20T09:05:56;99858.53;;;20.39;63.33
13011;BME280;6786;57.632;11.962;2023-07-20T09:08:24;99865.09;;;20.44;63.37
13011;BME280;6786;57.632;11.962;2023-07-20T09:10:52;99866.63;;;20.47;63.08
13011;BME280;6786;57.632;11.962;2023-07-20T09:13:21;99869.13;;;20.48;63.10
13011;BME280;6786;57.632;11.962;2023-07-20T09:15:54;99865.44;;;20.49;63.24
13011;BME280;6786;57.632;11.962;2023-07-20T09:18:26;99877.88;;;20.50;63.22
13011;BME280;6786;57.632;11.962;2023-07-20T09:20:58;99876.16;;;20.49;63.17
13011;BME280;6786;57.632;11.962;2023-07-20T09:23:32;99873.66;;;20.48;63.21
13011;BME280;6786;57.632;11.962;2023-07-20T09:26:01;99877.19;;;20.48;63.21
13011;BME280;6786;57.632;11.962;2023-07-20T09:28:29;99874.50;;;20.48;63.21
13011;BME280;6786;57.632;11.962;2023-07-20T09:31:15;99882.56;;;20.48;63.01
13011;BME280;6786;57.632;11.962;2023-07-20T09:33:44;99888.94;;;20.47;63.13
13011;BME280;6786;57.632;11.962;2023-07-20T09:36:15;99872.84;;;20.47;63.32
13011;BME280;6786;57.632;11.962;2023-07-20T09:39:04;99885.25;;;20.48;63.06
13011;BME280;6786;57.632;11.962;2023-07-20T09:41:40;99799.75;;;20.04;62.87
13011;BME280;6786;57.632;11.962;2023-07-20T09:44:14;99866.09;;;20.43;62.89
13011;BME280;6786;57.632;11.962;2023-07-20T09:46:47;99896.34;;;20.53;62.97
13011;BME280;6786;57.632;11.962;2023-07-20T09:49:18;99879.72;;;20.50;62.79
13011;BME280;6786;57.632;11.962;2023-07-20T09:51:49;99884.59;;;20.54;62.97
13011;BME280;6786;57.632;11.962;2023-07-20T09:54:18;99880.88;;;20.55;63.10
13011;BME280;6786;57.632;11.962;2023-07-20T09:56:50;99883.72;;;20.54;63.01
13011;BME280;6786;57.632;11.962;2023-07-20T09:59:19;99883.91;;;20.52;62.94
13011;BME280;6786;57.632;11.962;2023-07-20T10:01:49;99882.56;;;20.56;62.82
13011;BME280;6786;57.632;11.962;2023-07-20T10:04:21;99882.56;;;20.56;62.72
13011;BME280;6786;57.632;11.962;2023-07-20T10:06:52;99892.81;;;20.53;63.00
13011;BME280;6786;57.632;11.962;2023-07-20T10:09:24;99803.94;;;19.98;62.96
13011;BME280;6786;57.632;11.962;2023-07-20T10:11:53;99879.53;;;20.51;63.28
13011;BME280;6786;57.632;11.962;2023-07-20T10:14:25;99879.22;;;20.54;62.72
13011;BME280;6786;57.632;11.962;2023-07-20T10:16:58;99830.81;;;20.14;62.97
13011;BME280;6786;57.632;11.962;2023-07-20T10:19:34;99879.38;;;20.53;62.90
13011;BME280;6786;57.632;11.962;2023-07-20T10:22:20;99883.06;;;20.52;63.10
13011;BME280;6786;57.632;11.962;2023-07-20T10:24:51;99886.41;;;20.54;63.26
13011;BME280;6786;57.632;11.962;2023-07-20T10:27:20;99886.59;;;20.52;63.03
13011;BME280;6786;57.632;11.962;2023-07-20T10:29:51;99887.44;;;20.53;63.09
13011;BME280;6786;57.632;11.962;2023-07-20T10:32:20;99893.66;;;20.53;63.04
13011;BME280;6786;57.632;11.962;2023-07-20T10:34:52;99884.59;;;20.54;63.13
13011;BME280;6786;57.632;11.962;2023-07-20T10:37:48;99888.28;;;20.53;63.10
13011;BME280;6786;57.632;11.962;2023-07-20T10:40:27;99889.94;;;20.54;62.78
13011;BME280;6786;57.632;11.962;2023-07-20T10:43:01;99887.25;;;20.54;62.89
13011;BME280;6786;57.632;11.962;2023-07-20T10:45:40;99887.91;;;20.56;62.88
13011;BME280;6786;57.632;11.962;2023-07-20T10:48:18;99890.44;;;20.58;62.79
13011;BME280;6786;57.632;11.962;2023-07-20T10:51:14;99895.00;;;20.57;62.92
13011;BME280;6786;57.632;11.962;2023-07-20T10:53:48;99898.66;;;20.56;62.85
13011;BME280;6786;57.632;11.962;2023-07-20T10:56:20;99888.94;;;20.55;62.99
13011;BME280;6786;57.632;11.962;2023-07-20T10:58:48;99904.03;;;20.56;63.03
13011;BME280;6786;57.632;11.962;2023-07-20T11:01:17;99895.66;;;20.51;62.80
13011;BME280;6786;57.632;11.962;2023-07-20T11:03:50;99902.34;;;20.55;63.03
13011;BME280;6786;57.632;11.962;2023-07-20T11:06:30;99904.38;;;20.53;63.10
13011;BME280;6786;57.632;11.962;2023-07-20T11:09:05;99845.34;;;20.12;62.80
13011;BME280;6786;57.632;11.962;2023-07-20T11:11:36;99904.38;;;20.53;62.95
13011;BME280;6786;57.632;11.962;2023-07-20T11:14:05;99888.94;;;20.47;63.03
13011;BME280;6786;57.632;11.962;2023-07-20T11:16:39;99846.25;;;20.20;62.83
13011;BME280;6786;57.632;11.962;2023-07-20T11:19:15;99899.69;;;20.55;63.11
13011;BME280;6786;57.632;11.962;2023-07-20T11:21:50;99857.00;;;20.28;63.02
13011;BME280;6786;57.632;11.962;2023-07-20T11:24:30;99905.03;;;20.55;62.96
13011;BME280;6786;57.632;11.962;2023-07-20T11:26:59;99901.69;;;20.53;63.07
13011;BME280;6786;57.632;11.962;2023-07-20T11:29:28;99908.06;;;20.52;63.16
13011;BME280;6786;57.632;11.962;2023-07-20T11:32:00;99895.97;;;20.48;63.21
13011;BME280;6786;57.632;11.962;2023-07-20T11:34:34;99906.38;;;20.51;63.16
13011;BME280;6786;57.632;11.962;2023-07-20T11:37:02;99901.34;;;20.48;63.10
13011;BME280;6786;57.632;11.962;2023-07-20T11:39:34;99908.06;;;20.52;63.22
13011;BME280;6786;57.632;11.962;2023-07-20T11:42:03;99918.78;;;20.52;63.12
13011;BME280;6786;57.632;11.962;2023-07-20T11:44:31;99909.75;;;20.53;63.18
13011;BME280;6786;57.632;11.962;2023-07-20T11:47:00;99909.06;;;20.51;63.04
13011;BME280;6786;57.632;11.962;2023-07-20T11:49:30;99908.06;;;20.52;63.01
13011;BME280;6786;57.632;11.962;2023-07-20T11:52:03;99906.38;;;20.51;63.15
13011;BME280;6786;57.632;11.962;2023-07-20T11:54:32;99906.38;;;20.51;63.03
13011;BME280;6786;57.632;11.962;2023-07-20T11:57:01;99900.00;;;20.52;63.36
13011;BME280;6786;57.632;11.962;2023-07-20T11:59:29;99909.75;;;20.53;62.99
13011;BME280;6786;57.632;11.962;2023-07-20T12:01:58;99835.50;;;20.12;62.99
13011;BME280;6786;57.632;11.962;2023-07-20T12:04:30;99912.59;;;20.52;63.26
13011;BME280;6786;57.632;11.962;2023-07-20T12:06:59;99891.78;;;20.46;63.26
13011;BME280;6786;57.632;11.962;2023-07-20T12:09:28;99924.16;;;20.52;63.26
13011;BME280;6786;57.632;11.962;2023-07-20T12:12:15;99902.84;;;20.51;63.28
13011;BME280;6786;57.632;11.962;2023-07-20T12:14:44;99872.06;;;20.21;63.07
13011;BME280;6786;57.632;11.962;2023-07-20T12:17:13;99897.31;;;20.52;62.96
13011;BME280;6786;57.632;11.962;2023-07-20T12:19:41;99906.38;;;20.51;63.34
13011;BME280;6786;57.632;11.962;2023-07-20T12:22:09;99901.00;;;20.51;63.40
13011;BME280;6786;57.632;11.962;2023-07-20T12:24:39;99828.06;;;19.98;63.05
13011;BME280;6786;57.632;11.962;2023-07-20T12:27:07;99917.13;;;20.51;63.03
13011;BME280;6786;57.632;11.962;2023-07-20T12:29:35;99908.38;;;20.49;63.30
13011;BME280;6786;57.632;11.962;2023-07-20T12:32:05;99904.38;;;20.53;63.38
13011;BME280;6786;57.632;11.962;2023-07-20T12:34:33;99909.75;;;20.53;63.43
13011;BME280;6786;57.632;11.962;2023-07-20T12:37:03;99918.78;;;20.52;63.27
13011;BME280;6786;57.632;11.962;2023-07-20T12:39:31;99909.75;;;20.53;63.20
13011;BME280;6786;57.632;11.962;2023-07-20T12:42:02;99923.84;;;20.55;63.06
13011;BME280;6786;57.632;11.962;2023-07-20T12:44:30;99921.31;;;20.54;63.33
13011;BME280;6786;57.632;11.962;2023-07-20T12:46:58;99912.44;;;20.53;63.13
13011;BME280;6786;57.632;11.962;2023-07-20T12:49:26;99913.25;;;20.54;63.10
13011;BME280;6786;57.632;11.962;2023-07-20T12:51:54;99915.13;;;20.53;63.35
13011;BME280;6786;57.632;11.962;2023-07-20T12:54:22;99928.53;;;20.53;63.30
13011;BME280;6786;57.632;11.962;2023-07-20T12:56:50;99918.78;;;20.52;63.12
13011;BME280;6786;57.632;11.962;2023-07-20T12:59:23;99925.00;;;20.53;63.15
13011;BME280;6786;57.632;11.962;2023-07-20T13:01:51;99923.84;;;20.55;63.13
13011;BME280;6786;57.632;11.962;2023-07-20T13:04:19;99915.13;;;20.53;63.16
13011;BME280;6786;57.632;11.962;2023-07-20T13:06:47;99922.50;;;20.51;63.15
13011;BME280;6786;57.632;11.962;2023-07-20T13:09:15;99925.88;;;20.53;63.34
13011;BME280;6786;57.632;11.962;2023-07-20T13:11:43;99933.91;;;20.53;63.45
13011;BME280;6786;57.632;11.962;2023-07-20T13:14:12;99928.53;;;20.53;63.26
13011;BME280;6786;57.632;11.962;2023-07-20T13:16:42;99929.19;;;20.55;63.37
13011;BME280;6786;57.632;11.962;2023-07-20T13:19:10;99928.53;;;20.53;63.41
13011;BME280;6786;57.632;11.962;2023-07-20T13:21:38;99931.22;;;20.53;63.13
13011;BME280;6786;57.632;11.962;2023-07-20T13:24:06;99936.59;;;20.53;63.42
13011;BME280;6786;57.632;11.962;2023-07-20T13:26:34;99932.91;;;20.54;63.22
13011;BME280;6786;57.632;11.962;2023-07-20T13:29:02;99931.22;;;20.53;63.21
13011;BME280;6786;57.632;11.962;2023-07-20T13:31:31;99933.72;;;20.55;63.35
13011;BME280;6786;57.632;11.962;2023-07-20T13:34:02;99932.91;;;20.54;63.44
13011;BME280;6786;57.632;11.962;2023-07-20T13:36:34;99932.91;;;20.54;63.34
13011;BME280;6786;57.632;11.962;2023-07-20T13:39:02;99920.50;;;20.53;63.15
13011;BME280;6786;57.632;11.962;2023-07-20T13:41:31;99931.22;;;20.53;63.37
13011;BME280;6786;57.632;11.962;2023-07-20T13:44:01;99936.59;;;20.53;63.21
13011;BME280;6786;57.632;11.962;2023-07-20T13:46:32;99927.53;;;20.54;63.46
13011;BME280;6786;57.632;11.962;2023-07-20T13:49:05;99930.38;;;20.53;63.50
13011;BME280;6786;57.632;11.962;2023-07-20T13:51:39;99934.91;;;20.52;63.37
13011;BME280;6786;57.632;11.962;2023-07-20T13:54:08;99933.22;;;20.51;63.61
13011;BME280;6786;57.632;11.962;2023-07-20T13:56:39;99927.84;;;20.51;63.30
13011;BME280;6786;57.632;11.962;2023-07-20T13:59:08;99918.09;;;20.42;63.15
13011;BME280;6786;57.632;11.962;2023-07-20T14:01:36;99821.63;;;19.83;63.15
13011;BME280;6786;57.632;11.962;2023-07-20T14:04:06;99938.59;;;20.51;63.49
13011;BME280;6786;57.632;11.962;2023-07-20T14:06:36;99941.97;;;20.53;63.46